Time;durP1;ratioP1;P1;durP2;ratioP2;P2;SDS_P1;SDS_P2;PMS_P1;PMS_P2;Temp;Humidity;BMP_temperature;BMP_pressure;BME280_temperature;BME280_humidity;BME280_pressure;Samples;Min_cycle;Max_cycle;Signal;HPM_P1;HPM_P2
2021/07/05 00:00:16;;;;;;;8.70;8.00;;;;;;;21.64;46.04;98902.16;5109727;28;20052;-69
2021/07/05 00:02:42;;;;;;;17.55;9.02;;;;;;;21.55;46.06;98905.53;5105585;28;20035;-69
2021/07/05 00:05:09;;;;;;;11.18;7.90;;;;;;;21.49;46.54;98903.56;5111091;28;20088;-69
2021/07/05 00:07:35;;;;;;;8.07;7.30;;;;;;;21.45;46.85;98898.69;5098618;28;20572;-69
2021/07/05 00:10:01;;;;;;;9.20;8.30;;;;;;;21.50;46.72;98897.44;5098733;28;20119;-69
2021/07/05 00:12:27;;;;;;;9.68;8.52;;;;;;;21.33;47.58;98893.56;5106415;28;20260;-70
2021/07/05 00:14:52;;;;;;;9.85;8.88;;;;;;;21.15;47.89;98888.88;5129267;27;20035;-69
2021/07/05 00:17:18;;;;;;;8.73;7.93;;;;;;;21.40;46.95;98889.81;5130917;27;20034;-69
2021/07/05 00:19:43;;;;;;;9.00;8.20;;;;;;;21.34;47.00;98886.63;5128713;27;20056;-69
2021/07/05 00:22:09;;;;;;;9.15;8.35;;;;;;;21.30;46.70;98885.88;5130235;27;20029;-70
2021/07/05 00:24:34;;;;;;;9.07;8.18;;;;;;;21.29;47.04;98887.13;5133080;27;20088;-69
2021/07/05 00:27:00;;;;;;;8.45;7.65;;;;;;;21.19;47.31;98883.16;5132269;27;20098;-70
2021/07/05 00:29:26;;;;;;;8.85;8.00;;;;;;;21.07;47.60;98884.47;5128470;27;20100;-69
2021/07/05 00:31:51;;;;;;;10.65;9.00;;;;;;;21.05;47.90;98881.25;5130584;27;20019;-70
2021/07/05 00:34:20;;;;;;;11.02;8.45;;;;;;;20.93;48.54;98882.56;5122900;27;20060;-69
2021/07/05 00:36:45;;;;;;;9.88;8.98;;;;;;;21.04;48.29;98882.50;5114077;28;20044;-69
2021/07/05 00:39:11;;;;;;;9.63;8.52;;;;;;;20.87;49.07;98892.78;5115120;27;20473;-69
2021/07/05 00:41:37;;;;;;;9.98;9.00;;;;;;;20.74;49.57;98886.78;5114153;28;20497;-69
2021/07/05 00:44:02;;;;;;;10.55;8.80;;;;;;;20.72;49.81;98883.53;5114224;28;20027;-69
2021/07/05 00:46:28;;;;;;;10.55;8.88;;;;;;;20.88;49.00;98885.88;5114248;28;20031;-69
2021/07/05 00:48:54;;;;;;;9.38;8.48;;;;;;;20.57;49.70;98882.84;5104896;27;20059;-69
2021/07/05 00:51:21;;;;;;;10.35;9.05;;;;;;;20.28;50.36;98889.56;5114227;28;20428;-69
2021/07/05 00:53:48;;;;;;;10.88;8.65;;;;;;;20.22;50.32;98888.38;5114283;28;20031;-69
2021/07/05 00:56:14;;;;;;;10.85;8.93;;;;;;;20.20;50.16;98885.16;5111889;28;20032;-69
2021/07/05 00:58:40;;;;;;;12.60;8.82;;;;;;;20.26;50.12;98886.31;5107092;28;20031;-70
2021/07/05 01:01:05;;;;;;;10.60;9.23;;;;;;;20.44;49.79;98893.91;5112581;28;20611;-69
2021/07/05 01:03:31;;;;;;;10.50;9.40;;;;;;;20.46;50.34;98897.97;5114088;28;20691;-69
2021/07/05 01:05:56;;;;;;;10.52;9.43;;;;;;;20.27;51.21;98893.63;5107975;28;20032;-69
2021/07/05 01:08:22;;;;;;;10.23;9.07;;;;;;;20.19;50.83;98892.84;5113286;28;20031;-69
2021/07/05 01:10:47;;;;;;;10.02;9.10;;;;;;;20.41;50.23;98892.72;5113814;28;20174;-69
2021/07/05 01:13:13;;;;;;;9.73;8.60;;;;;;;20.53;49.62;98899.13;5113775;28;20048;-70
2021/07/05 01:15:39;;;;;;;12.50;9.55;;;;;;;20.22;50.55;98891.22;5104429;28;20024;-69
2021/07/05 01:18:06;;;;;;;9.98;8.98;;;;;;;20.29;50.31;98884.69;5113563;28;20034;-69
2021/07/05 01:20:35;;;;;;;13.57;9.60;;;;;;;20.49;49.90;98884.94;5111614;28;20028;-69
2021/07/05 01:23:01;;;;;;;10.35;8.88;;;;;;;20.47;49.89;98885.38;5112991;28;20072;-69
2021/07/05 01:25:29;;;;;;;10.80;8.60;;;;;;;20.19;50.66;98886.38;5107508;28;20432;-70
2021/07/05 01:27:57;;;;;;;10.60;9.50;;;;;;;19.90;51.32;98881.63;5113393;28;20133;-69
2021/07/05 01:30:23;;;;;;;17.10;8.82;;;;;;;20.12;51.02;98880.72;5113317;28;20020;-69
2021/07/05 01:32:53;;;;;;;11.25;9.13;;;;;;;19.92;51.45;98873.53;5106145;28;20115;-70
2021/07/05 01:35:19;;;;;;;11.48;9.40;;;;;;;19.80;52.32;98887.38;5111909;28;20111;-69
2021/07/05 01:37:44;;;;;;;9.73;8.75;;;;;;;20.04;51.36;98886.47;5111355;28;20130;-69
2021/07/05 01:40:16;;;;;;;14.32;9.23;;;;;;;20.09;51.16;98893.75;5113018;28;20451;-69
2021/07/05 01:42:41;;;;;;;12.43;9.43;;;;;;;20.02;51.37;98896.59;5108692;28;20076;-69
2021/07/05 01:45:08;;;;;;;9.90;8.75;;;;;;;19.87;51.96;98898.69;5113318;28;20073;-70
2021/07/05 01:47:33;;;;;;;9.70;8.82;;;;;;;19.92;51.58;98890.56;5111786;28;20032;-69
2021/07/05 01:49:59;;;;;;;12.73;8.80;;;;;;;19.86;51.81;98891.38;5111576;28;20032;-69
2021/07/05 01:52:24;;;;;;;13.30;8.88;;;;;;;19.93;52.29;98894.22;5105287;27;20026;-69
2021/07/05 01:54:50;;;;;;;11.50;9.18;;;;;;;19.86;52.66;98888.53;5113360;27;20036;-69
2021/07/05 01:57:24;;;;;;;11.10;8.65;;;;;;;19.99;52.39;98898.22;5112783;28;20038;-69
2021/07/05 01:59:58;;;;;;;12.23;9.30;;;;;;;20.12;51.79;98892.09;5111361;27;20031;-69
2021/07/05 02:02:25;;;;;;;10.40;9.27;;;;;;;19.79;51.96;98895.06;5110449;28;20512;-70
2021/07/05 02:04:53;;;;;;;10.30;8.90;;;;;;;19.77;52.08;98891.84;5113025;28;20035;-69
2021/07/05 02:07:19;;;;;;;11.63;9.68;;;;;;;19.60;52.40;98890.69;5112597;28;20447;-69
2021/07/05 02:09:46;;;;;;;10.57;9.13;;;;;;;19.55;53.10;98882.59;5110611;28;20528;-69
2021/07/05 02:12:13;;;;;;;13.90;9.45;;;;;;;19.61;53.12;98890.28;5112588;28;20042;-69
2021/07/05 02:14:40;;;;;;;9.05;8.07;;;;;;;19.59;52.43;98894.75;5112737;28;20032;-69
2021/07/05 02:17:08;;;;;;;9.68;8.68;;;;;;;19.87;52.30;98885.31;5112506;28;20038;-69
2021/07/05 02:19:34;;;;;;;14.88;9.13;;;;;;;19.63;52.29;98885.00;5106108;28;20035;-70
2021/07/05 02:21:59;;;;;;;10.48;9.40;;;;;;;19.57;52.48;98878.13;5108207;28;20031;-69
2021/07/05 02:24:27;;;;;;;12.82;9.43;;;;;;;19.67;51.84;98873.66;5112402;28;20485;-69
2021/07/05 02:26:52;;;;;;;15.05;9.05;;;;;;;19.54;52.05;98869.63;5112884;27;20030;-70
2021/07/05 02:29:18;;;;;;;21.63;9.73;;;;;;;19.37;52.43;98877.78;5110751;27;20032;-69
2021/07/05 02:31:43;;;;;;;11.10;9.93;;;;;;;19.08;53.43;98883.53;5103731;28;20030;-69
2021/07/05 02:34:09;;;;;;;9.43;8.52;;;;;;;18.89;53.91;98885.53;5098693;28;20040;-69
2021/07/05 02:36:34;;;;;;;11.13;9.90;;;;;;;19.06;53.93;98885.94;5130714;27;20055;-70
2021/07/05 02:39:00;;;;;;;13.68;9.65;;;;;;;19.17;53.56;98888.78;5111895;28;20031;-70
2021/07/05 02:41:25;;;;;;;14.75;9.23;;;;;;;19.12;53.89;98881.50;5111861;28;20030;-69
2021/07/05 02:43:50;;;;;;;12.68;9.77;;;;;;;19.25;52.84;98881.88;5112210;28;20031;-69
2021/07/05 02:46:16;;;;;;;11.27;9.07;;;;;;;18.95;53.63;98885.94;5106627;27;20457;-68
2021/07/05 02:48:42;;;;;;;16.13;9.18;;;;;;;18.92;53.74;98881.09;5111558;28;20118;-68
2021/07/05 02:51:09;;;;;;;14.13;9.02;;;;;;;18.87;54.35;98890.00;5112046;28;20019;-69
2021/07/05 02:53:35;;;;;;;16.00;9.65;;;;;;;18.89;54.15;98887.59;5110582;28;20451;-69
2021/07/05 02:56:02;;;;;;;11.00;9.02;;;;;;;18.53;55.11;98885.56;5105827;28;20015;-69
2021/07/05 02:58:28;;;;;;;12.75;9.20;;;;;;;18.46;55.46;98891.19;5111776;28;20043;-69
2021/07/05 03:00:58;;;;;;;12.80;9.07;;;;;;;18.43;55.62;98883.53;5099106;28;20481;-69
2021/07/05 03:03:24;;;;;;;;;;;;;;;18.53;55.64;98885.56;5111138;28;20031;-69
2021/07/05 03:05:50;;;;;;;14.82;9.18;;;;;;;18.34;56.15;98892.41;5107583;28;20331;-69
2021/07/05 03:08:16;;;;;;;13.40;9.63;;;;;;;18.29;55.90;98890.78;5111406;28;20108;-69
2021/07/05 03:10:43;;;;;;;18.67;8.82;;;;;;;18.21;56.59;98891.97;5104623;28;20537;-70
2021/07/05 03:13:14;;;;;;;15.80;8.57;;;;;;;18.25;56.22;98898.47;5108719;27;20489;-68
2021/07/05 03:15:40;;;;;;;14.13;10.00;;;;;;;18.07;56.94;98898.44;5105617;28;20034;-69
2021/07/05 03:18:06;;;;;;;13.18;9.20;;;;;;;18.01;56.83;98897.97;5111714;28;20020;-69
2021/07/05 03:20:37;;;;;;;11.95;10.32;;;;;;;17.82;57.72;98891.44;5109746;28;20050;-69
2021/07/05 03:23:05;;;;;;;25.25;11.45;;;;;;;17.88;57.53;98902.38;5107525;28;20027;-69
2021/07/05 03:25:32;;;;;;;17.95;10.15;;;;;;;17.94;57.60;98900.78;5120525;27;20032;-68
2021/07/05 03:27:58;;;;;;;14.48;9.45;;;;;;;17.91;57.78;98904.41;5114325;27;20027;-69
2021/07/05 03:30:26;;;;;;;17.42;10.85;;;;;;;18.01;57.53;98897.97;5111100;28;20023;-69
2021/07/05 03:32:52;;;;;;;23.65;10.75;;;;;;;17.90;57.72;98897.94;5106885;28;20020;-69
2021/07/05 03:35:18;;;;;;;21.95;10.02;;;;;;;18.01;57.17;98897.97;5109871;28;20043;-68
2021/07/05 03:37:45;;;;;;;15.98;10.35;;;;;;;18.05;57.24;98893.16;5111054;28;20066;-70
2021/07/05 03:40:13;;;;;;;12.68;9.88;;;;;;;18.08;57.04;98898.00;5106910;28;20028;-70
2021/07/05 03:42:39;;;;;;;12.95;10.90;;;;;;;18.23;56.86;98889.56;5110753;28;20417;-72
2021/07/05 03:45:09;;;;;;;14.15;10.10;;;;;;;18.24;56.96;98882.69;5104973;28;20035;-71
2021/07/05 03:47:35;;;;;;;15.13;10.48;;;;;;;18.18;57.20;98884.28;5109539;28;20046;-72
2021/07/05 03:50:04;;;;;;;14.65;10.38;;;;;;;18.21;57.65;98889.16;5102611;28;20498;-72
2021/07/05 03:52:29;;;;;;;11.93;9.45;;;;;;;18.27;57.25;98879.06;5109620;28;20050;-69
2021/07/05 03:54:54;;;;;;;11.43;9.38;;;;;;;18.41;56.72;98880.28;5109629;28;20066;-69
2021/07/05 03:57:23;;;;;;;13.18;9.55;;;;;;;18.26;57.06;98868.94;5110638;28;20421;-70
2021/07/05 03:59:58;;;;;;;13.48;9.88;;;;;;;18.23;58.01;98875.44;5108727;28;20024;-72
2021/07/05 04:02:24;;;;;;;14.43;10.40;;;;;;;18.43;57.98;98867.34;5110582;28;20031;-69
2021/07/05 04:04:50;;;;;;;21.20;10.00;;;;;;;18.36;58.39;98878.66;5111018;28;20036;-69
2021/07/05 04:07:16;;;;;;;13.82;10.52;;;;;;;18.12;59.40;98878.22;5108600;28;20055;-72
2021/07/05 04:09:42;;;;;;;11.32;8.68;;;;;;;18.15;58.50;98874.56;5110073;28;20039;-73
2021/07/05 04:12:09;;;;;;;10.43;8.65;;;;;;;18.20;58.57;98881.88;5109142;28;20383;-69
2021/07/05 04:14:35;;;;;;;12.50;9.30;;;;;;;18.17;58.74;98874.19;5110584;28;20556;-69
2021/07/05 04:17:01;;;;;;;16.27;9.48;;;;;;;18.26;58.56;98873.78;5103409;28;20021;-71
2021/07/05 04:19:27;;;;;;;17.65;9.18;;;;;;;18.53;58.29;98877.06;5107368;28;20043;-71
2021/07/05 04:21:52;;;;;;;14.80;9.05;;;;;;;18.60;58.40;98871.41;5108965;28;20116;-70
2021/07/05 04:24:18;;;;;;;11.30;9.73;;;;;;;18.53;58.83;98868.56;5109119;28;20061;-71
2021/07/05 04:26:43;;;;;;;11.27;10.07;;;;;;;18.74;58.84;98881.13;5102387;28;20039;-69
2021/07/05 04:29:09;;;;;;;15.75;10.00;;;;;;;18.86;58.66;98883.53;5108283;28;20051;-68
2021/07/05 04:31:34;;;;;;;11.55;9.63;;;;;;;18.90;58.08;98872.19;5108578;28;20050;-68
2021/07/05 04:34:00;;;;;;;14.57;10.02;;;;;;;18.82;57.44;98868.53;5098410;28;20032;-73
2021/07/05 04:36:26;;;;;;;14.20;10.13;;;;;;;18.93;57.64;98871.38;5106252;28;20096;-72
2021/07/05 04:38:51;;;;;;;16.08;9.85;;;;;;;19.11;57.18;98860.03;5110786;28;21755;-69
2021/07/05 04:41:16;;;;;;;11.93;9.48;;;;;;;19.10;56.53;98858.44;5106847;28;20043;-72
2021/07/05 04:43:42;;;;;;;12.70;10.25;;;;;;;19.25;56.55;98855.56;5107667;28;20038;-71
2021/07/05 04:46:08;;;;;;;13.35;9.43;;;;;;;19.44;55.67;98855.09;5103846;28;20031;-72
2021/07/05 04:48:34;;;;;;;11.48;10.38;;;;;;;19.36;55.80;98859.16;5109762;28;20032;-73
2021/07/05 04:51:01;;;;;;;18.67;10.75;;;;;;;19.32;55.57;98862.00;5110651;28;20023;-70
2021/07/05 04:53:27;;;;;;;14.43;10.48;;;;;;;19.29;56.00;98851.50;5103851;28;20028;-72
2021/07/05 04:55:54;;;;;;;13.45;8.93;;;;;;;19.43;55.37;98852.66;5109055;28;20100;-72
2021/07/05 04:58:20;;;;;;;13.80;9.82;;;;;;;19.63;55.54;98855.81;5110256;28;20047;-72
2021/07/05 05:00:45;;;;;;;13.00;10.25;;;;;;;19.63;55.43;98850.16;5111541;28;20047;-71
2021/07/05 05:03:11;;;;;;;16.45;9.40;;;;;;;19.80;55.26;98837.09;5111613;28;20058;-69
2021/07/05 05:05:40;;;;;;;11.88;10.07;;;;;;;20.00;54.94;98845.13;5114234;28;20039;-71
2021/07/05 05:08:07;;;;;;;11.65;9.02;;;;;;;20.17;53.98;98840.56;5112776;28;20501;-72
2021/07/05 05:10:32;;;;;;;17.27;10.57;;;;;;;20.22;54.34;98840.13;5113706;28;20045;-73
2021/07/05 05:12:58;;;;;;;15.32;9.57;;;;;;;20.24;54.58;98839.72;5102001;28;20027;-74
2021/07/05 05:15:23;;;;;;;12.35;9.63;;;;;;;20.65;52.60;98849.53;5112614;28;20031;-72
2021/07/05 05:17:49;;;;;;;10.43;9.02;;;;;;;20.46;52.94;98843.19;5113763;28;20020;-70
2021/07/05 05:20:16;;;;;;;14.05;9.77;;;;;;;20.55;52.99;98840.69;5112006;28;20111;-70
2021/07/05 05:22:42;;;;;;;12.32;10.20;;;;;;;20.53;53.30;98842.31;5108936;28;20027;-69
2021/07/05 05:25:09;;;;;;;12.95;9.82;;;;;;;20.62;52.99;98840.59;5114304;28;20032;-70
2021/07/05 05:27:35;;;;;;;19.52;9.48;;;;;;;20.56;52.14;98842.28;5113732;28;20030;-71
2021/07/05 05:30:00;;;;;;;13.98;9.60;;;;;;;20.55;52.32;98843.53;5108053;28;20474;-69
2021/07/05 05:32:26;;;;;;;13.38;10.07;;;;;;;20.70;52.92;98849.06;5113436;28;20031;-71
2021/07/05 05:34:51;;;;;;;16.13;9.93;;;;;;;20.93;52.32;98851.31;5113755;28;20031;-69
2021/07/05 05:37:17;;;;;;;14.95;9.40;;;;;;;21.00;52.22;98841.94;5113342;28;20051;-69
2021/07/05 05:39:42;;;;;;;16.98;10.35;;;;;;;20.95;52.33;98848.06;5107168;28;20042;-68
2021/07/05 05:42:08;;;;;;;14.25;9.65;;;;;;;21.24;51.58;98837.19;5113306;28;20065;-70
2021/07/05 05:44:34;;;;;;;20.85;10.18;;;;;;;21.37;51.29;98842.31;5113422;28;20062;-71
2021/07/05 05:46:59;;;;;;;14.73;9.55;;;;;;;21.42;51.24;98839.03;5112282;28;20473;-71
2021/07/05 05:49:25;;;;;;;11.57;9.13;;;;;;;21.63;51.03;98832.25;5111440;28;20493;-70
2021/07/05 05:51:51;;;;;;;14.70;9.88;;;;;;;21.72;49.71;98824.03;5113192;28;20031;-71
2021/07/05 05:54:16;;;;;;;14.13;9.93;;;;;;;21.91;50.37;98826.66;5113216;28;20036;-71
2021/07/05 05:56:43;;;;;;;19.23;10.77;;;;;;;22.02;50.32;98819.53;5110798;28;20031;-70
2021/07/05 05:59:10;;;;;;;12.85;9.68;;;;;;;22.18;49.07;98820.94;5109035;28;20054;-70
2021/07/05 06:01:38;;;;;;;12.68;9.10;;;;;;;22.49;47.70;98820.88;5112776;28;20031;-71
2021/07/05 06:04:04;;;;;;;15.73;10.20;;;;;;;22.54;47.32;98814.69;5112887;28;20044;-70
2021/07/05 06:06:29;;;;;;;14.55;10.45;;;;;;;22.62;47.53;98817.41;5110629;28;20041;-70
2021/07/05 06:08:55;;;;;;;12.32;9.98;;;;;;;22.71;47.72;98817.69;5103358;28;20070;-69
2021/07/05 06:11:20;;;;;;;17.25;8.77;;;;;;;22.76;47.89;98819.22;5106261;28;20477;-71
2021/07/05 06:13:47;;;;;;;10.57;9.32;;;;;;;22.99;47.75;98812.69;5104218;28;20036;-70
2021/07/05 06:16:12;;;;;;;12.10;8.93;;;;;;;23.17;45.99;98820.06;5106435;28;20455;-71
2021/07/05 06:18:41;;;;;;;13.23;8.55;;;;;;;23.19;46.43;98814.75;5110268;28;20027;-70
2021/07/05 06:21:07;;;;;;;23.52;9.05;;;;;;;23.34;45.29;98801.84;5112391;28;20023;-71
2021/07/05 06:23:32;;;;;;;9.55;8.23;;;;;;;23.54;45.28;98798.97;5110945;28;20081;-69
2021/07/05 06:26:00;;;;;;;17.52;9.30;;;;;;;23.73;44.88;98804.28;5105895;28;20031;-69
2021/07/05 06:28:28;;;;;;;8.52;7.70;;;;;;;23.80;44.21;98793.50;5102900;28;20035;-70
2021/07/05 06:30:54;;;;;;;13.00;7.53;;;;;;;23.97;44.37;98796.41;5110748;28;20031;-70
2021/07/05 06:33:20;;;;;;;11.18;7.25;;;;;;;23.98;44.78;98795.97;5108612;27;20032;-69
2021/07/05 06:35:47;;;;;;;7.70;6.18;;;;;;;24.27;44.51;98790.84;5110276;28;20027;-69
2021/07/05 06:38:13;;;;;;;8.13;7.18;;;;;;;24.42;45.25;98797.00;5110064;28;20031;-69
2021/07/05 06:40:40;;;;;;;12.35;7.05;;;;;;;24.58;44.00;98799.88;5106301;28;20667;-69
2021/07/05 06:43:06;;;;;;;16.35;7.63;;;;;;;24.72;43.56;98790.09;5103928;28;20072;-69
2021/07/05 06:45:33;;;;;;;9.35;7.63;;;;;;;24.89;43.13;98787.25;5109897;28;20054;-70
2021/07/05 06:47:59;;;;;;;16.98;7.25;;;;;;;24.99;43.03;98789.03;5108465;28;20421;-69
2021/07/05 06:50:26;;;;;;;6.80;6.13;;;;;;;25.03;41.41;98789.72;5106802;28;20046;-69
2021/07/05 06:52:52;;;;;;;8.88;7.55;;;;;;;25.17;42.29;98781.97;5103581;28;20030;-69
2021/07/05 06:55:18;;;;;;;22.83;7.93;;;;;;;25.35;42.49;98781.47;5103450;28;20480;-70
2021/07/05 06:57:44;;;;;;;16.88;6.97;;;;;;;25.45;40.72;98785.25;5109807;28;20035;-70
2021/07/05 07:00:19;;;;;;;9.82;6.57;;;;;;;25.63;41.56;98779.84;5106307;27;20472;-71
2021/07/05 07:02:45;;;;;;;7.63;5.88;;;;;;;25.70;40.45;98772.28;5110704;28;20058;-71
2021/07/05 07:05:13;;;;;;;8.73;6.25;;;;;;;25.65;40.72;98771.59;5109717;28;20118;-70
2021/07/05 07:07:41;;;;;;;8.23;5.82;;;;;;;25.79;40.09;98766.69;5111051;28;20020;-69
2021/07/05 07:10:07;;;;;;;12.93;7.03;;;;;;;26.00;40.16;98767.25;5107164;28;20033;-69
2021/07/05 07:12:37;;;;;;;7.45;5.55;;;;;;;26.03;39.46;98760.63;5107859;28;20119;-69
2021/07/05 07:15:08;;;;;;;19.08;7.05;;;;;;;26.23;39.57;98760.38;5109437;28;20027;-69
2021/07/05 07:17:39;;;;;;;13.35;6.28;;;;;;;26.26;38.68;98755.81;5108929;28;20035;-70
2021/07/05 07:20:07;;;;;;;10.18;6.45;;;;;;;26.41;37.35;98753.28;5103654;28;20023;-69
2021/07/05 07:22:34;;;;;;;8.95;6.57;;;;;;;26.57;37.16;98743.72;5106713;28;20397;-70
2021/07/05 07:24:59;;;;;;;8.52;5.78;;;;;;;26.71;37.45;98754.69;5104531;28;20028;-70
2021/07/05 07:27:25;;;;;;;10.40;6.35;;;;;;;26.85;36.60;98744.78;5115510;27;20043;-70
2021/07/05 07:29:50;;;;;;;17.38;6.35;;;;;;;26.91;35.95;98747.88;5108876;28;20023;-70
2021/07/05 07:32:16;;;;;;;8.50;5.97;;;;;;;26.98;36.48;98741.88;5109546;28;20032;-70
2021/07/05 07:34:41;;;;;;;7.10;6.22;;;;;;;27.20;35.42;98735.34;5110902;28;20039;-70
2021/07/05 07:37:08;;;;;;;8.35;5.72;;;;;;;27.17;35.55;98733.41;5103413;28;20071;-71
2021/07/05 07:39:39;;;;;;;19.15;6.63;;;;;;;27.31;36.01;98726.31;5103338;28;20043;-71
2021/07/05 07:42:04;;;;;;;9.90;7.00;;;;;;;27.46;34.94;98730.25;5110777;28;20036;-71
2021/07/05 07:44:30;;;;;;;9.57;6.43;;;;;;;27.56;34.70;98722.50;5110014;27;20080;-69
2021/07/05 07:46:56;;;;;;;14.70;6.43;;;;;;;27.72;34.38;98723.53;5106138;28;20035;-70
2021/07/05 07:49:22;;;;;;;10.32;5.10;;;;;;;27.72;33.28;98724.34;5120921;27;20107;-69
2021/07/05 07:51:47;;;;;;;10.73;6.25;;;;;;;27.87;33.48;98721.69;5121274;27;20023;-69
2021/07/05 07:54:13;;;;;;;8.43;5.75;;;;;;;27.96;34.61;98715.16;5122122;27;20055;-69
2021/07/05 07:56:44;;;;;;;11.65;5.75;;;;;;;28.09;33.33;98711.38;5119769;27;20039;-69
2021/07/05 07:59:12;;;;;;;11.68;6.40;;;;;;;28.29;33.29;98719.59;5125458;27;20030;-69
2021/07/05 08:01:38;;;;;;;7.32;5.25;;;;;;;28.38;33.38;98716.75;5128767;27;20103;-69
2021/07/05 08:04:04;;;;;;;6.50;5.28;;;;;;;28.52;32.50;98712.44;5125595;27;20504;-70
2021/07/05 08:06:30;;;;;;;8.88;5.72;;;;;;;28.63;33.22;98719.78;5122952;27;20336;-69
2021/07/05 08:08:56;;;;;;;8.15;5.45;;;;;;;28.71;32.37;98707.50;5128873;27;20034;-72
2021/07/05 08:11:22;;;;;;;10.45;6.53;;;;;;;28.85;32.41;98708.19;5131289;27;20034;-69
2021/07/05 08:13:48;;;;;;;7.40;5.43;;;;;;;29.00;31.40;98708.31;5118061;27;20085;-70
2021/07/05 08:16:13;;;;;;;5.55;5.05;;;;;;;29.08;31.12;98700.13;5106336;28;20032;-68
2021/07/05 08:18:39;;;;;;;10.73;5.13;;;;;;;29.10;30.59;98700.47;5106765;28;20405;-65
2021/07/05 08:21:05;;;;;;;16.30;5.20;;;;;;;29.26;29.09;98702.19;5110114;27;20024;-66
2021/07/05 08:23:31;;;;;;;11.02;4.85;;;;;;;29.37;30.22;98698.81;5107246;28;20054;-67
2021/07/05 08:25:57;;;;;;;6.50;5.05;;;;;;;29.42;29.64;98698.16;5110549;28;20050;-66
2021/07/05 08:28:24;;;;;;;6.65;4.97;;;;;;;29.37;29.03;98693.84;5118946;28;20409;-65
2021/07/05 08:30:52;;;;;;;7.32;5.70;;;;;;;29.54;29.20;98687.75;5107560;28;20574;-69
2021/07/05 08:33:17;;;;;;;5.32;4.82;;;;;;;29.74;28.78;98684.31;5097257;28;20031;-70
2021/07/05 08:35:43;;;;;;;15.02;6.18;;;;;;;29.79;28.58;98680.75;5111784;28;20043;-71
2021/07/05 08:38:08;;;;;;;6.57;4.65;;;;;;;29.55;27.46;98689.34;5112928;28;20586;-69
2021/07/05 08:40:34;;;;;;;5.85;4.85;;;;;;;29.78;27.68;98684.94;5107695;28;20043;-70
2021/07/05 08:42:59;;;;;;;13.63;5.95;;;;;;;29.79;27.39;98686.53;5119726;27;20031;-71
2021/07/05 08:45:25;;;;;;;10.18;6.13;;;;;;;29.84;28.26;98688.75;5114018;28;20028;-67
2021/07/05 08:47:52;;;;;;;6.93;4.95;;;;;;;29.80;28.24;98682.34;5112802;28;20115;-67
2021/07/05 08:50:20;;;;;;;7.57;5.00;;;;;;;30.02;27.17;98687.06;5113647;27;20396;-67
2021/07/05 08:52:46;;;;;;;6.60;5.50;;;;;;;29.89;26.11;98683.59;5114069;28;20035;-68
2021/07/05 08:55:14;;;;;;;5.32;4.90;;;;;;;29.88;25.79;98673.38;5114349;28;20036;-70
2021/07/05 08:57:43;;;;;;;5.00;4.60;;;;;;;29.69;26.38;98682.09;5114562;27;20028;-71
2021/07/05 09:00:18;;;;;;;5.65;4.70;;;;;;;29.68;25.49;98684.19;5117146;27;20028;-72
2021/07/05 09:02:45;;;;;;;7.78;4.53;;;;;;;29.61;26.04;98681.63;5113633;28;20027;-73
2021/07/05 09:05:11;;;;;;;5.20;4.00;;;;;;;29.53;24.79;98681.19;5114143;28;20489;-74
2021/07/05 09:07:55;;;;;;;5.60;4.10;;;;;;;29.35;24.92;98681.22;5122633;27;20528;-71
2021/07/05 09:10:21;;;;;;;7.70;4.45;;;;;;;29.45;25.96;98682.03;5105311;28;20051;-72
2021/07/05 09:13:11;;;;;;;6.65;4.65;;;;;;;29.43;26.93;98673.88;5113463;28;20558;-74
2021/07/05 09:15:38;;;;;;;;;;;;;;;29.43;28.26;98676.75;5104356;28;20485;-75
2021/07/05 09:18:24;;;;;;;10.30;4.68;;;;;;;29.46;26.71;98670.03;5106874;28;19920;-74
2021/07/05 09:20:52;;;;;;;5.70;4.60;;;;;;;29.48;26.76;98672.41;5115145;27;20031;-73
2021/07/05 09:23:17;;;;;;;8.70;5.45;;;;;;;29.78;28.00;98658.22;5112241;28;20088;-74
2021/07/05 09:25:46;;;;;;;8.05;4.55;;;;;;;29.82;27.06;98662.50;5118617;27;20688;-71
2021/07/05 09:28:12;;;;;;;9.65;6.35;;;;;;;30.01;26.83;98656.63;5111877;28;20011;-73
2021/07/05 09:30:46;;;;;;;7.25;4.10;;;;;;;30.29;27.67;98656.50;5111852;28;20028;-72
2021/07/05 09:33:22;;;;;;;8.32;4.00;;;;;;;30.33;25.77;98644.75;5112259;27;20522;-76
2021/07/05 09:36:00;;;;;;;7.22;4.53;;;;;;;30.58;26.50;98645.53;5112451;27;20508;-75
2021/07/05 09:38:37;;;;;;;15.43;5.32;;;;;;;30.51;26.86;98638.84;5110618;28;20413;-73
2021/07/05 09:41:24;;;;;;;6.45;4.13;;;;;;;30.78;26.18;98653.56;5112055;27;20027;-72
2021/07/05 09:43:55;;;;;;;9.10;4.70;;;;;;;30.47;25.40;98641.13;5107320;27;20031;-75
2021/07/05 09:46:48;;;;;;;7.63;4.38;;;;;;;30.64;26.23;98644.38;5109387;27;20574;-72
2021/07/05 09:49:30;;;;;;;5.10;4.10;;;;;;;30.63;26.67;98645.66;5110961;28;20031;-73
2021/07/05 09:52:14;;;;;;;4.20;3.80;;;;;;;30.61;25.97;98638.78;5107282;28;20111;-73
2021/07/05 09:54:43;;;;;;;4.32;3.92;;;;;;;30.70;27.09;98640.81;5106110;28;20042;-72
2021/07/05 09:57:25;;;;;;;9.18;5.05;;;;;;;30.64;24.99;98632.03;5109790;28;20032;-70
2021/07/05 10:00:11;;;;;;;5.25;4.18;;;;;;;30.59;26.60;98633.50;5097319;28;20016;-71
2021/07/05 10:02:37;;;;;;;6.70;4.78;;;;;;;30.70;27.36;98635.03;5102899;28;20049;-71
2021/07/05 10:05:17;;;;;;;5.95;4.32;;;;;;;30.72;27.53;98624.59;5110056;28;20031;-71
2021/07/05 10:07:43;;;;;;;;;;;;;;;30.66;27.41;98624.50;5106348;28;20023;-71
2021/07/05 10:10:15;;;;;;;5.10;4.55;;;;;;;30.78;25.75;98618.94;5120258;27;19915;-70
2021/07/05 10:13:02;;;;;;;4.85;4.45;;;;;;;30.56;27.88;98622.13;5111531;28;20073;-70
2021/07/05 10:15:29;;;;;;;5.18;4.70;;;;;;;30.55;27.33;98618.47;5102745;28;20039;-71
2021/07/05 10:17:55;;;;;;;9.57;4.43;;;;;;;30.61;27.97;98607.03;5112018;28;20034;-70
2021/07/05 10:20:26;;;;;;;7.25;4.90;;;;;;;30.72;28.22;98604.41;5119281;27;20023;-71
2021/07/05 10:22:57;;;;;;;9.63;4.28;;;;;;;30.94;27.38;98604.00;5112014;28;20761;-70
2021/07/05 10:25:25;;;;;;;6.10;4.97;;;;;;;31.00;28.04;98597.53;5121576;27;20035;-71
2021/07/05 10:27:51;;;;;;;7.88;4.00;;;;;;;31.15;28.77;98597.53;5111302;28;20103;-71
2021/07/05 10:30:18;;;;;;;4.95;4.28;;;;;;;31.41;28.13;98594.03;5110574;28;20047;-72
2021/07/05 10:32:45;;;;;;;5.32;4.47;;;;;;;31.63;27.26;98590.72;5109944;28;20031;-71
2021/07/05 10:35:13;;;;;;;8.95;4.55;;;;;;;31.73;26.97;98585.59;5110012;28;20137;-71
2021/07/05 10:38:08;;;;;;;5.20;4.68;;;;;;;31.98;25.94;98580.44;5119488;27;20508;-71
2021/07/05 10:40:41;;;;;;;5.15;4.60;;;;;;;31.99;26.04;98585.72;5108663;27;20055;-70
2021/07/05 10:43:14;;;;;;;5.70;4.70;;;;;;;31.81;26.15;98585.97;5122205;27;20027;-70
2021/07/05 10:45:48;;;;;;;4.43;3.72;;;;;;;31.69;25.54;98573.44;5111058;28;20026;-71
2021/07/05 10:48:37;;;;;;;4.00;3.60;;;;;;;31.58;26.44;98569.09;5109315;28;20066;-72
2021/07/05 10:51:04;;;;;;;4.40;4.00;;;;;;;31.74;26.06;98576.44;5103345;27;20024;-71
2021/07/05 10:53:33;;;;;;;4.93;4.38;;;;;;;31.94;26.07;98563.31;5110040;28;20035;-71
2021/07/05 10:56:00;;;;;;;4.88;4.32;;;;;;;31.72;26.59;98561.66;5110234;28;20024;-70
2021/07/05 10:58:28;;;;;;;6.45;4.15;;;;;;;31.61;27.41;98561.50;5110920;28;20111;-71
2021/07/05 11:00:56;;;;;;;11.43;4.40;;;;;;;31.68;27.21;98568.94;5114466;27;20027;-71
2021/07/05 11:03:37;;;;;;;4.50;4.10;;;;;;;31.67;27.62;98568.16;5109875;28;20088;-73
2021/07/05 11:06:14;;;;;;;4.93;4.53;;;;;;;31.41;27.08;98560.19;5107534;28;20115;-73
2021/07/05 11:08:49;;;;;;;6.95;4.53;;;;;;;31.38;26.46;98561.19;5112929;27;20397;-73
2021/07/05 11:11:14;;;;;;;4.28;3.88;;;;;;;31.48;27.55;98562.63;5099656;28;20038;-73
2021/07/05 11:13:40;;;;;;;4.32;4.00;;;;;;;31.41;27.38;98557.28;5113056;27;20110;-73
2021/07/05 11:16:07;;;;;;;7.75;4.93;;;;;;;31.39;28.13;98559.88;5116744;27;20022;-73
2021/07/05 11:18:35;;;;;;;6.90;4.05;;;;;;;31.48;28.05;98556.06;5115520;27;20077;-73
2021/07/05 11:21:01;;;;;;;11.95;4.55;;;;;;;31.33;28.50;98561.88;5109397;28;20114;-73
2021/07/05 11:24:00;;;;;;;8.68;4.22;;;;;;;31.64;28.28;98549.72;5110875;28;20110;-73
2021/07/05 11:26:35;;;;;;;5.25;4.15;;;;;;;31.84;28.75;98556.88;5108887;28;20047;-73
2021/07/05 11:29:16;;;;;;;7.63;4.50;;;;;;;31.90;27.61;98545.38;5113180;27;20059;-73
2021/07/05 11:31:51;;;;;;;11.32;4.15;;;;;;;32.00;27.44;98541.06;5107020;27;20115;-73